Time;durP1;ratioP1;P1;durP2;ratioP2;P2;SDS_P1;SDS_P2;PMS_P1;PMS_P2;Temp;Humidity;BMP_temperature;BMP_pressure;BME280_temperature;BME280_humidity;BME280_pressure;Samples;Min_cycle;Max_cycle;Signal;HPM_P1;HPM_P2
2023/09/12 00:00:30;;;;;;;12.00;10.90;;;19.60;99.90;;;;;;5059345;28;20304;-52
2023/09/12 00:02:57;;;;;;;12.90;11.90;;;19.60;99.90;;;;;;5051449;28;20202;-52
2023/09/12 00:05:24;;;;;;;12.20;11.10;;;19.60;99.90;;;;;;5050318;28;20202;-53
2023/09/12 00:07:53;;;;;;;11.40;10.60;;;19.60;99.90;;;;;;5062728;28;20221;-52
2023/09/12 00:10:21;;;;;;;13.00;11.97;;;19.60;99.90;;;;;;5059457;28;20288;-52
2023/09/12 00:12:48;;;;;;;12.37;11.47;;;19.60;99.90;;;;;;5053765;28;20201;-52
2023/09/12 00:15:14;;;;;;;12.60;11.20;;;19.50;99.90;;;;;;5047347;28;20290;-52
2023/09/12 00:17:43;;;;;;;12.00;11.10;;;19.50;99.90;;;;;;5049484;28;20786;-52
2023/09/12 00:20:11;;;;;;;12.77;11.57;;;19.50;99.90;;;;;;5042210;28;20271;-52
2023/09/12 00:22:38;;;;;;;12.73;11.63;;;19.40;99.90;;;;;;5051036;28;20212;-52
2023/09/12 00:25:05;;;;;;;13.80;12.50;;;19.40;99.90;;;;;;5049527;28;20198;-52
2023/09/12 00:27:32;;;;;;;14.23;12.87;;;19.30;99.90;;;;;;5044346;28;20221;-52
2023/09/12 00:29:59;;;;;;;12.97;11.97;;;19.30;99.90;;;;;;5049622;28;20199;-53
2023/09/12 00:32:26;;;;;;;16.00;14.53;;;19.30;99.90;;;;;;5050951;28;20275;-52
2023/09/12 00:34:54;;;;;;;16.57;15.13;;;19.30;99.90;;;;;;5049728;28;20258;-52
2023/09/12 00:37:21;;;;;;;16.50;15.03;;;19.30;99.90;;;;;;5050771;28;20221;-52
2023/09/12 00:39:48;;;;;;;17.80;16.30;;;19.20;99.90;;;;;;5050776;28;20263;-52
2023/09/12 00:42:15;;;;;;;17.17;15.60;;;19.20;99.90;;;;;;5041910;28;20303;-52
2023/09/12 00:44:42;;;;;;;20.57;16.73;;;19.10;99.90;;;;;;5049592;28;20201;-52
2023/09/12 00:47:10;;;;;;;16.57;15.07;;;19.10;99.90;;;;;;5053465;28;20274;-52
2023/09/12 00:49:38;;;;;;;16.67;15.27;;;19.10;99.90;;;;;;5058853;28;20201;-52
2023/09/12 00:52:08;;;;;;;16.37;14.73;;;19.10;99.90;;;;;;5057464;28;20194;-52
2023/09/12 00:54:35;;;;;;;14.57;13.17;;;19.10;99.90;;;;;;5050577;28;20623;-52
2023/09/12 00:57:02;;;;;;;15.60;14.20;;;19.00;99.90;;;;;;5055905;28;20286;-52
2023/09/12 00:59:29;;;;;;;14.87;13.57;;;19.00;99.90;;;;;;5062378;28;20660;-52
2023/09/12 01:01:56;;;;;;;14.30;13.03;;;18.90;99.90;;;;;;5058240;28;20221;-52
2023/09/12 01:04:23;;;;;;;16.40;15.07;;;19.00;99.90;;;;;;5052036;28;20263;-52
2023/09/12 01:06:50;;;;;;;15.00;13.80;;;18.90;99.90;;;;;;5054241;28;20992;-53
2023/09/12 01:09:20;;;;;;;15.07;13.67;;;18.90;99.90;;;;;;5055876;28;20257;-52
2023/09/12 01:11:47;;;;;;;17.13;15.53;;;18.90;99.90;;;;;;5049390;28;20332;-52
2023/09/12 01:14:17;;;;;;;15.07;13.80;;;18.80;99.90;;;;;;5050123;28;20577;-52
2023/09/12 01:16:44;;;;;;;15.13;13.80;;;18.80;99.90;;;;;;5043463;28;20317;-52
2023/09/12 01:19:14;;;;;;;17.30;15.63;;;18.80;99.90;;;;;;5049939;28;20202;-52
2023/09/12 01:22:08;;;;;;;15.23;13.83;;;18.70;99.90;;;;;;5049570;28;20217;-52
2023/09/12 01:25:07;;;;;;;16.67;15.17;;;18.70;99.90;;;;;;5049750;28;20260;-52
2023/09/12 01:27:36;;;;;;;16.73;15.43;;;18.70;99.90;;;;;;5044710;28;20222;-52
2023/09/12 01:30:05;;;;;;;15.90;14.63;;;18.70;99.90;;;;;;5052515;28;20723;-52
2023/09/12 01:32:33;;;;;;;15.90;14.43;;;18.70;99.90;;;;;;5054189;28;20256;-52
2023/09/12 01:35:03;;;;;;;15.13;13.77;;;18.70;99.90;;;;;;5046245;28;20202;-53
2023/09/12 01:37:30;;;;;;;14.13;12.83;;;18.70;99.90;;;;;;5051809;28;20237;-53
2023/09/12 01:39:57;;;;;;;15.47;13.97;;;18.60;99.90;;;;;;5053795;28;20197;-52
2023/09/12 01:42:25;;;;;;;15.10;13.50;;;18.60;99.90;;;;;;5053714;28;20218;-52
2023/09/12 01:44:57;;;;;;;14.90;13.53;;;18.60;99.90;;;;;;5058081;28;20210;-53
2023/09/12 01:47:25;;;;;;;14.87;13.73;;;18.60;99.90;;;;;;5053089;28;20218;-52
2023/09/12 01:49:55;;;;;;;14.63;13.43;;;18.60;99.90;;;;;;5061914;28;20255;-52
2023/09/12 01:52:23;;;;;;;14.17;13.07;;;18.60;99.90;;;;;;5059336;28;20352;-52
2023/09/12 01:54:51;;;;;;;14.30;13.23;;;18.60;99.90;;;;;;5051974;28;20657;-52
2023/09/12 01:57:21;;;;;;;12.97;11.97;;;18.60;99.90;;;;;;5054317;28;20222;-52
2023/09/12 01:59:48;;;;;;;14.03;12.73;;;18.60;99.90;;;;;;5053444;28;20210;-52
2023/09/12 02:02:17;;;;;;;16.07;14.67;;;18.70;99.90;;;;;;5048858;28;20332;-52
2023/09/12 02:04:52;;;;;;;16.57;14.87;;;18.70;99.90;;;;;;5057879;28;20585;-52
2023/09/12 02:07:19;;;;;;;15.73;14.13;;;18.70;99.90;;;;;;5053564;28;20638;-52
2023/09/12 02:09:46;;;;;;;15.67;14.40;;;18.70;99.90;;;;;;5055658;28;20260;-52
2023/09/12 02:12:13;;;;;;;15.83;14.43;;;18.80;99.90;;;;;;5052494;28;20752;-52
2023/09/12 02:14:39;;;;;;;17.83;14.50;;;18.80;99.90;;;;;;5057656;28;20198;-52
2023/09/12 02:17:06;;;;;;;16.83;15.40;;;18.80;99.90;;;;;;5062234;28;20229;-52
2023/09/12 02:19:35;;;;;;;15.03;13.90;;;18.70;99.90;;;;;;5059061;28;20202;-52
2023/09/12 02:22:02;;;;;;;17.87;16.33;;;18.70;99.90;;;;;;5051237;28;20218;-52
2023/09/12 02:24:29;;;;;;;16.00;14.57;;;18.70;99.90;;;;;;5048750;28;20577;-52
2023/09/12 02:26:56;;;;;;;14.80;13.60;;;18.70;99.90;;;;;;5050406;28;20222;-52
2023/09/12 02:29:23;;;;;;;15.83;14.23;;;18.60;99.90;;;;;;5052931;28;20202;-52
2023/09/12 02:31:50;;;;;;;15.57;14.23;;;18.60;99.90;;;;;;5053093;28;20198;-52
2023/09/12 02:34:20;;;;;;;15.50;14.13;;;18.50;99.90;;;;;;5052368;28;20662;-52
2023/09/12 02:36:48;;;;;;;15.40;13.90;;;18.40;99.90;;;;;;5052291;28;20287;-52
2023/09/12 02:39:15;;;;;;;17.00;15.40;;;18.40;99.90;;;;;;5045764;28;20271;-52
2023/09/12 02:41:42;;;;;;;15.17;13.83;;;18.40;99.90;;;;;;5046020;28;20219;-53
2023/09/12 02:44:09;;;;;;;16.33;14.87;;;18.30;99.90;;;;;;5051883;28;20202;-52
2023/09/12 02:46:37;;;;;;;17.33;15.63;;;18.30;99.90;;;;;;5052189;28;20225;-52
2023/09/12 02:49:04;;;;;;;15.63;14.07;;;18.20;99.90;;;;;;5052482;28;20206;-52
2023/09/12 02:51:31;;;;;;;17.97;16.20;;;18.20;99.90;;;;;;5050601;28;20206;-52
2023/09/12 02:53:59;;;;;;;19.50;17.40;;;18.10;99.90;;;;;;5053722;28;20198;-52
2023/09/12 02:56:26;;;;;;;16.37;14.87;;;18.10;99.90;;;;;;5101869;22;20225;-55
2023/09/12 02:58:53;;;;;;;15.53;14.33;;;18.10;99.90;;;;;;5089118;28;20261;-57
2023/09/12 03:01:21;;;;;;;14.37;12.97;;;18.00;99.90;;;;;;5081185;28;20289;-57
2023/09/12 03:03:49;;;;;;;15.37;14.07;;;18.00;99.90;;;;;;5081536;28;20554;-57
2023/09/12 03:06:18;;;;;;;15.73;14.23;;;18.10;99.90;;;;;;5058371;28;20272;-55
2023/09/12 03:08:45;;;;;;;15.80;14.27;;;18.10;99.90;;;;;;5049887;28;20202;-57
2023/09/12 03:11:13;;;;;;;16.23;14.73;;;18.10;99.90;;;;;;5050119;28;20285;-57
2023/09/12 03:13:42;;;;;;;16.87;15.37;;;18.20;99.90;;;;;;5046486;28;20202;-57
2023/09/12 03:16:11;;;;;;;16.77;15.27;;;18.20;99.90;;;;;;5048480;28;20225;-57
2023/09/12 03:18:38;;;;;;;16.00;14.70;;;18.20;99.90;;;;;;5054654;28;20258;-57
2023/09/12 03:21:05;;;;;;;14.97;13.73;;;18.10;99.90;;;;;;5052435;28;20269;-57
2023/09/12 03:23:32;;;;;;;18.20;16.50;;;18.10;99.90;;;;;;5058503;28;20268;-57
2023/09/12 03:26:01;;;;;;;15.90;14.27;;;18.00;99.90;;;;;;5064642;28;20217;-57
2023/09/12 03:28:30;;;;;;;18.00;16.50;;;17.90;99.90;;;;;;5071474;28;20208;-57
2023/09/12 03:31:05;;;;;;;17.17;15.47;;;17.80;99.90;;;;;;5061190;28;20197;-57
2023/09/12 03:33:32;;;;;;;16.37;14.97;;;17.80;99.90;;;;;;5070877;28;20694;-57
2023/09/12 03:35:59;;;;;;;17.43;14.53;;;17.70;99.90;;;;;;5062425;28;20276;-57
2023/09/12 03:38:26;;;;;;;14.80;13.50;;;17.70;99.90;;;;;;5048767;28;20287;-56
2023/09/12 03:40:53;;;;;;;15.20;13.80;;;17.70;99.90;;;;;;5049698;28;20335;-57
2023/09/12 03:43:19;;;;;;;16.53;15.17;;;17.70;99.90;;;;;;5069848;28;20201;-57
2023/09/12 03:45:48;;;;;;;15.40;14.00;;;17.70;99.90;;;;;;5066085;28;20236;-57
2023/09/12 03:48:15;;;;;;;14.70;13.37;;;17.70;99.90;;;;;;5070630;28;20284;-57
2023/09/12 03:50:42;;;;;;;14.77;13.43;;;17.70;99.90;;;;;;5057379;28;20304;-57
2023/09/12 03:53:09;;;;;;;14.03;12.90;;;17.60;99.90;;;;;;5068744;28;20520;-57
2023/09/12 03:55:36;;;;;;;13.43;12.43;;;17.70;99.90;;;;;;5065785;28;20302;-57
2023/09/12 03:58:04;;;;;;;17.00;15.37;;;17.70;99.90;;;;;;5070507;28;20197;-57
2023/09/12 04:00:31;;;;;;;17.30;15.67;;;17.70;99.90;;;;;;5067642;28;20278;-57
2023/09/12 04:02:59;;;;;;;16.43;14.83;;;17.70;99.90;;;;;;5070415;28;20293;-58
2023/09/12 04:05:26;;;;;;;17.67;16.00;;;17.80;99.90;;;;;;5070077;28;20286;-57
2023/09/12 04:07:53;;;;;;;17.67;15.97;;;17.80;99.90;;;;;;5054557;28;20207;-57
2023/09/12 04:10:21;;;;;;;15.93;14.57;;;17.70;99.90;;;;;;5046052;28;20750;-57
2023/09/12 04:12:48;;;;;;;17.93;16.13;;;17.60;99.90;;;;;;5044124;28;20217;-57
2023/09/12 04:15:15;;;;;;;16.47;14.97;;;17.70;99.90;;;;;;5048814;28;20590;-56
2023/09/12 04:17:42;;;;;;;17.23;15.70;;;17.60;99.90;;;;;;5048907;28;20264;-57
2023/09/12 04:20:13;;;;;;;15.00;13.23;;;17.50;99.90;;;;;;5047197;28;20198;-57
2023/09/12 04:22:41;;;;;;;16.23;14.73;;;17.50;99.90;;;;;;5049073;28;20229;-57
2023/09/12 04:25:08;;;;;;;15.53;14.23;;;17.50;99.90;;;;;;5047130;28;20217;-57
2023/09/12 04:27:35;;;;;;;15.77;14.43;;;17.50;99.90;;;;;;5040949;28;20202;-57
2023/09/12 04:30:03;;;;;;;14.90;13.43;;;17.60;99.90;;;;;;5043681;28;20193;-57
2023/09/12 04:32:30;;;;;;;14.30;13.00;;;17.60;99.90;;;;;;5048890;28;20209;-57
2023/09/12 04:34:57;;;;;;;16.17;14.53;;;17.50;99.90;;;;;;5040693;28;20229;-57
2023/09/12 04:37:25;;;;;;;15.37;13.87;;;17.50;99.90;;;;;;5049329;28;20255;-57
2023/09/12 04:39:52;;;;;;;15.10;13.80;;;17.50;99.90;;;;;;5048861;28;20263;-57
2023/09/12 04:42:19;;;;;;;14.70;13.40;;;17.60;99.90;;;;;;5042609;28;20300;-57
2023/09/12 04:44:46;;;;;;;13.77;12.67;;;17.60;99.90;;;;;;5048248;28;20658;-57
2023/09/12 04:47:13;;;;;;;12.53;11.57;;;17.60;99.90;;;;;;5042432;28;20259;-57
2023/09/12 04:49:40;;;;;;;14.60;13.10;;;17.60;99.90;;;;;;5048540;28;20197;-57
2023/09/12 04:52:07;;;;;;;15.23;13.73;;;17.60;99.90;;;;;;5048803;28;20194;-57
2023/09/12 04:54:36;;;;;;;13.80;12.47;;;17.60;99.90;;;;;;5047742;28;20573;-56
2023/09/12 04:57:04;;;;;;;14.97;13.87;;;17.60;99.90;;;;;;5046111;28;20279;-56
2023/09/12 04:59:31;;;;;;;16.90;15.40;;;17.60;99.90;;;;;;5042081;28;20673;-57
2023/09/12 05:01:58;;;;;;;15.03;13.60;;;17.60;99.90;;;;;;5044480;28;20225;-56
2023/09/12 05:04:25;;;;;;;15.23;13.63;;;17.60;99.90;;;;;;5047007;28;20206;-56
2023/09/12 05:06:52;;;;;;;15.97;14.67;;;17.50;99.90;;;;;;5046486;28;20723;-57
2023/09/12 05:09:22;;;;;;;15.33;14.03;;;17.50;99.90;;;;;;5053784;28;20268;-57
2023/09/12 05:11:50;;;;;;;14.03;12.83;;;17.50;99.90;;;;;;5053728;28;20210;-56
2023/09/12 05:14:20;;;;;;;16.63;14.97;;;17.50;99.90;;;;;;5053258;28;20201;-56
2023/09/12 05:16:47;;;;;;;16.07;14.57;;;17.50;99.90;;;;;;5052961;28;20326;-56
2023/09/12 05:19:14;;;;;;;20.60;16.23;;;17.40;99.90;;;;;;5055052;28;20255;-57
2023/09/12 05:21:41;;;;;;;18.77;17.07;;;17.50;99.90;;;;;;5058473;28;20290;-57
2023/09/12 05:24:08;;;;;;;17.47;15.67;;;17.60;99.90;;;;;;5053302;28;20198;-57
2023/09/12 05:26:35;;;;;;;16.77;15.17;;;17.60;99.90;;;;;;5052877;28;20280;-57
2023/09/12 05:29:05;;;;;;;17.37;15.57;;;17.70;99.90;;;;;;5053816;28;20205;-56
2023/09/12 05:31:32;;;;;;;17.13;15.63;;;17.70;99.90;;;;;;5053287;28;20202;-56
2023/09/12 05:33:59;;;;;;;17.70;15.13;;;17.80;99.90;;;;;;5053997;28;20201;-57
2023/09/12 05:36:26;;;;;;;18.20;15.70;;;17.90;99.90;;;;;;5058038;28;20778;-57
2023/09/12 05:38:53;;;;;;;16.63;15.03;;;18.00;99.90;;;;;;5049570;28;20252;-57
2023/09/12 05:41:20;;;;;;;16.43;14.07;;;18.10;99.90;;;;;;5044879;28;20232;-56
2023/09/12 05:43:47;;;;;;;19.00;16.37;;;18.20;99.90;;;;;;5052758;28;20279;-56
2023/09/12 05:46:15;;;;;;;18.33;15.80;;;18.40;99.90;;;;;;5052181;28;20335;-56
2023/09/12 05:48:42;;;;;;;17.10;15.43;;;18.60;99.90;;;;;;5053122;28;20205;-57
2023/09/12 05:51:09;;;;;;;15.70;14.13;;;18.70;99.90;;;;;;5052597;28;20202;-56
2023/09/12 05:53:36;;;;;;;16.50;14.83;;;19.30;99.90;;;;;;5052714;28;20696;-56
2023/09/12 05:56:03;;;;;;;15.67;14.07;;;20.10;99.90;;;;;;5052067;28;20386;-56
2023/09/12 05:58:30;;;;;;;16.90;15.27;;;21.20;99.90;;;;;;5052463;28;20204;-56
2023/09/12 06:00:57;;;;;;;19.87;17.20;;;22.20;99.90;;;;;;5052681;28;20344;-57
2023/09/12 06:03:25;;;;;;;15.57;13.23;;;23.00;99.90;;;;;;5052476;28;20225;-57
2023/09/12 06:05:52;;;;;;;11.77;10.67;;;24.00;99.90;;;;;;5052022;28;20778;-57
2023/09/12 06:08:19;;;;;;;12.03;11.03;;;24.60;99.90;;;;;;5051108;28;20202;-55
2023/09/12 06:10:46;;;;;;;12.47;11.43;;;25.00;99.90;;;;;;5051028;28;20209;-55
2023/09/12 06:13:13;;;;;;;11.53;10.63;;;25.60;99.90;;;;;;5052176;28;20199;-55
2023/09/12 06:15:41;;;;;;;12.10;11.00;;;26.10;99.90;;;;;;5049074;28;20221;-55
2023/09/12 06:18:08;;;;;;;11.20;9.97;;;26.70;99.90;;;;;;5050250;28;20630;-55
2023/09/12 06:20:36;;;;;;;12.53;11.17;;;27.30;99.90;;;;;;5055968;28;20201;-55
2023/09/12 06:23:03;;;;;;;12.83;11.83;;;27.80;99.90;;;;;;5051104;28;20214;-55
2023/09/12 06:25:30;;;;;;;12.65;11.55;;;28.10;99.90;;;;;;5050608;28;20218;-55
2023/09/12 06:27:57;;;;;;;11.65;10.75;;;28.30;99.90;;;;;;5052436;28;20210;-55
2023/09/12 06:30:24;;;;;;;10.90;10.10;;;28.40;99.90;;;;;;5051949;28;20201;-55
2023/09/12 06:32:51;;;;;;;12.15;10.15;;;28.40;99.90;;;;;;5051341;28;20206;-55
2023/09/12 06:35:19;;;;;;;10.20;9.60;;;28.30;99.90;;;;;;5049481;28;20303;-55
2023/09/12 06:37:48;;;;;;;12.23;11.02;;;28.40;99.90;;;;;;5042565;28;20291;-56
2023/09/12 06:40:15;;;;;;;10.93;10.07;;;28.40;99.90;;;;;;5053748;28;20295;-55
2023/09/12 06:42:44;;;;;;;10.93;10.02;;;28.20;99.90;;;;;;5041453;28;20287;-56
2023/09/12 06:45:11;;;;;;;12.68;11.30;;;28.00;99.90;;;;;;5045139;28;20305;-55
2023/09/12 06:47:38;;;;;;;10.50;9.55;;;27.70;99.90;;;;;;5048501;28;20206;-55
2023/09/12 06:50:06;;;;;;;11.10;10.07;;;26.90;99.90;;;;;;5045495;28;20204;-55
2023/09/12 06:52:33;;;;;;;9.90;9.25;;;26.30;99.90;;;;;;5046153;28;20205;-55
2023/09/12 06:55:02;;;;;;;11.27;9.80;;;25.70;99.90;;;;;;5047536;28;20198;-55
2023/09/12 06:57:29;;;;;;;12.43;11.38;;;25.50;99.90;;;;;;5050454;28;20256;-55
2023/09/12 06:59:55;;;;;;;11.87;10.70;;;25.10;99.90;;;;;;5046335;28;20243;-55
2023/09/12 07:02:22;;;;;;;10.60;9.60;;;24.70;99.90;;;;;;5050264;28;20217;-55
2023/09/12 07:04:49;;;;;;;12.50;11.40;;;24.50;99.90;;;;;;5047608;28;20202;-55
2023/09/12 07:07:16;;;;;;;15.10;11.03;;;24.70;99.90;;;;;;5046590;28;20198;-55
2023/09/12 07:09:43;;;;;;;14.18;11.30;;;24.80;99.90;;;;;;5048529;28;20194;-55
2023/09/12 07:12:11;;;;;;;12.30;11.10;;;25.00;99.90;;;;;;5048286;28;20252;-55
2023/09/12 07:14:38;;;;;;;11.38;10.30;;;25.20;99.90;;;;;;5046600;28;20249;-55
2023/09/12 07:17:07;;;;;;;11.37;10.33;;;25.40;99.90;;;;;;5050862;28;20230;-55
2023/09/12 07:19:34;;;;;;;10.80;10.02;;;25.20;99.90;;;;;;5050406;28;20205;-55
2023/09/12 07:22:01;;;;;;;11.90;10.87;;;25.30;99.90;;;;;;5049867;28;20251;-55
2023/09/12 07:24:28;;;;;;;13.20;11.37;;;25.50;99.90;;;;;;5059287;28;20623;-55
2023/09/12 07:26:55;;;;;;;12.17;11.10;;;25.60;99.90;;;;;;5047538;28;20218;-55
2023/09/12 07:29:24;;;;;;;11.10;10.00;;;25.30;99.90;;;;;;5050987;28;20573;-55
2023/09/12 07:31:53;;;;;;;10.53;9.70;;;25.20;99.90;;;;;;5050463;28;20670;-55
2023/09/12 07:34:21;;;;;;;11.63;10.60;;;25.50;99.90;;;;;;5058146;28;20423;-55
2023/09/12 07:36:48;;;;;;;11.70;10.90;;;25.80;99.90;;;;;;5048143;28;20312;-54
2023/09/12 07:39:18;;;;;;;10.37;9.37;;;25.90;99.90;;;;;;5050566;28;20558;-55
2023/09/12 07:41:45;;;;;;;11.23;10.18;;;26.10;99.90;;;;;;5057789;28;20199;-55
2023/09/12 07:44:15;;;;;;;10.25;9.45;;;26.30;99.90;;;;;;5048021;28;20213;-55
2023/09/12 07:46:44;;;;;;;11.43;10.18;;;27.00;99.90;;;;;;5050563;28;20263;-55
2023/09/12 07:49:11;;;;;;;13.07;11.73;;;28.00;99.90;;;;;;5049484;28;20271;-55
2023/09/12 07:51:37;;;;;;;13.10;10.23;;;28.30;99.90;;;;;;5050568;28;20305;-55
2023/09/12 07:54:05;;;;;;;11.95;10.73;;;28.30;99.90;;;;;;5050433;28;20615;-55
2023/09/12 07:56:32;;;;;;;9.35;8.73;;;28.20;99.90;;;;;;5049916;28;20232;-56
2023/09/12 07:58:59;;;;;;;10.20;9.27;;;28.20;99.90;;;;;;5050164;28;20275;-55
2023/09/12 08:01:27;;;;;;;10.48;9.68;;;27.70;99.90;;;;;;5046823;28;20206;-55
2023/09/12 08:03:55;;;;;;;10.40;9.45;;;27.30;99.90;;;;;;5044549;28;20302;-55
2023/09/12 08:06:23;;;;;;;11.68;10.75;;;27.20;99.90;;;;;;5049146;28;20353;-56
2023/09/12 08:08:50;;;;;;;11.05;10.05;;;27.50;99.90;;;;;;5050080;28;20201;-55
2023/09/12 08:11:18;;;;;;;10.15;9.38;;;28.30;99.90;;;;;;5049999;28;20244;-55
2023/09/12 08:13:49;;;;;;;9.38;8.68;;;29.00;99.90;;;;;;5049887;28;20190;-56
2023/09/12 08:16:16;;;;;;;16.00;11.45;;;29.40;99.90;;;;;;5049761;28;20218;-56
2023/09/12 08:18:43;;;;;;;12.45;10.35;;;28.90;99.90;;;;;;5041494;28;20194;-55
2023/09/12 08:21:12;;;;;;;10.70;9.65;;;29.00;99.90;;;;;;5048146;28;20202;-55
2023/09/12 08:23:38;;;;;;;11.02;10.13;;;28.90;99.90;;;;;;5050334;28;20604;-55
2023/09/12 08:26:05;;;;;;;8.80;8.30;;;29.20;99.90;;;;;;5049324;28;20217;-55
2023/09/12 08:28:32;;;;;;;10.40;9.27;;;29.60;99.90;;;;;;5051341;28;20568;-55
2023/09/12 08:31:00;;;;;;;9.57;8.88;;;30.00;99.90;;;;;;5057858;28;20268;-56
2023/09/12 08:33:27;;;;;;;11.38;9.23;;;30.30;99.90;;;;;;5043067;28;20198;-55
2023/09/12 08:35:54;;;;;;;12.63;9.00;;;30.50;99.90;;;;;;5056613;28;20282;-56
2023/09/12 08:38:22;;;;;;;8.95;8.13;;;30.60;99.90;;;;;;5063087;28;20193;-55
2023/09/12 08:40:50;;;;;;;9.27;8.38;;;30.80;99.90;;;;;;5064248;28;20726;-56
2023/09/12 08:43:17;;;;;;;29.10;10.93;;;30.80;99.90;;;;;;5063406;28;20787;-56
2023/09/12 08:45:45;;;;;;;64.55;16.60;;;30.30;99.90;;;;;;5057049;28;20283;-56
2023/09/12 08:48:13;;;;;;;174.48;28.33;;;30.10;99.90;;;;;;5053781;28;20201;-56
2023/09/12 08:50:41;;;;;;;30.38;11.43;;;29.60;99.90;;;;;;5048728;28;20201;-56
2023/09/12 08:53:08;;;;;;;26.80;11.85;;;29.50;99.90;;;;;;5049664;28;20198;-56
2023/09/12 08:55:36;;;;;;;26.77;10.18;;;29.60;99.90;;;;;;5072126;22;20226;-55
2023/09/12 08:58:05;;;;;;;9.20;8.40;;;30.10;99.90;;;;;;5050775;28;20345;-55
2023/09/12 09:00:32;;;;;;;9.43;8.55;;;30.40;99.90;;;;;;5044890;28;20688;-55
2023/09/12 09:03:00;;;;;;;16.35;9.73;;;30.30;99.90;;;;;;5039027;28;20233;-55
2023/09/12 09:05:28;;;;;;;9.77;8.65;;;30.80;99.90;;;;;;5049206;28;20275;-55
2023/09/12 09:07:56;;;;;;;8.52;7.88;;;31.30;99.90;;;;;;5048151;28;20208;-55
2023/09/12 09:10:23;;;;;;;88.55;30.90;;;31.90;99.90;;;;;;5041618;28;20206;-56
2023/09/12 09:12:52;;;;;;;9.63;8.85;;;32.40;99.90;;;;;;5050441;28;20198;-55
2023/09/12 09:15:23;;;;;;;9.98;8.98;;;32.80;99.90;;;;;;5040911;28;20198;-56
2023/09/12 09:17:52;;;;;;;11.10;8.15;;;32.50;99.90;;;;;;5041312;28;20205;-56
2023/09/12 09:20:29;;;;;;;8.13;7.60;;;32.90;99.90;;;;;;5050313;28;20252;-55
2023/09/12 09:23:00;;;;;;;9.77;8.85;;;33.20;99.90;;;;;;5050527;28;20610;-56
2023/09/12 09:25:27;;;;;;;14.18;12.77;;;33.40;99.90;;;;;;5042432;28;20263;-56
2023/09/12 09:27:56;;;;;;;12.00;10.93;;;33.40;99.90;;;;;;5050363;28;20251;-56
2023/09/12 09:30:42;;;;;;;10.88;9.32;;;33.20;99.90;;;;;;5044190;28;20325;-56
2023/09/12 09:33:11;;;;;;;9.40;8.75;;;32.40;99.90;;;;;;5038608;28;20259;-55
2023/09/12 09:35:39;;;;;;;9.48;8.75;;;32.20;99.90;;;;;;5043508;28;20645;-55
2023/09/12 09:38:08;;;;;;;9.77;8.95;;;32.30;99.90;;;;;;5050312;28;20237;-56
2023/09/12 09:40:36;;;;;;;8.95;8.20;;;32.60;99.90;;;;;;5050335;28;20206;-55
2023/09/12 09:43:05;;;;;;;9.23;8.38;;;32.70;99.90;;;;;;5048366;28;20284;-56
2023/09/12 09:45:32;;;;;;;9.55;8.60;;;32.60;99.90;;;;;;5038215;28;20234;-55
2023/09/12 09:48:00;;;;;;;8.75;8.15;;;33.20;99.90;;;;;;5047395;28;20285;-56
2023/09/12 09:50:28;;;;;;;8.82;8.00;;;33.50;99.90;;;;;;5051152;28;20288;-56
2023/09/12 09:52:57;;;;;;;8.55;8.05;;;33.80;99.90;;;;;;5053897;28;20380;-56
2023/09/12 09:55:25;;;;;;;9.20;8.52;;;33.80;99.90;;;;;;5053093;28;20228;-56
2023/09/12 09:57:53;;;;;;;8.15;7.45;;;34.00;99.30;;;;;;5045488;28;20212;-56
2023/09/12 10:00:24;;;;;;;10.15;9.25;;;33.60;99.90;;;;;;5045008;28;20304;-56
2023/09/12 10:02:52;;;;;;;11.32;8.80;;;33.90;99.90;;;;;;5060761;28;20208;-56
2023/09/12 10:05:19;;;;;;;8.75;8.15;;;33.90;99.30;;;;;;5064826;28;20217;-56
2023/09/12 10:07:50;;;;;;;9.80;8.90;;;34.10;98.70;;;;;;5073568;28;20255;-56
2023/09/12 10:10:18;;;;;;;12.63;9.35;;;34.10;98.80;;;;;;5073474;28;20288;-56
2023/09/12 10:12:50;;;;;;;9.27;8.32;;;34.30;99.10;;;;;;5055949;28;20284;-56
2023/09/12 10:15:22;;;;;;;8.55;8.05;;;34.40;96.70;;;;;;5055356;28;20284;-56
2023/09/12 10:17:57;;;;;;;8.25;7.63;;;33.80;96.90;;;;;;5073628;28;20205;-56
2023/09/12 10:20:28;;;;;;;8.87;8.27;;;33.30;98.00;;;;;;5066591;28;20455;-55
2023/09/12 10:23:07;;;;;;;8.48;7.65;;;33.80;97.90;;;;;;5048519;28;20634;-55
2023/09/12 10:25:36;;;;;;;9.45;8.77;;;34.10;98.00;;;;;;5044629;28;20214;-55
2023/09/12 10:28:05;;;;;;;12.07;8.73;;;34.20;98.70;;;;;;5037214;28;20580;-55
2023/09/12 10:30:34;;;;;;;9.48;8.57;;;34.20;98.30;;;;;;5052973;28;20628;-54
2023/09/12 10:33:03;;;;;;;8.75;7.95;;;34.30;98.30;;;;;;5052785;28;20212;-59
2023/09/12 10:35:32;;;;;;;10.23;9.30;;;34.30;96.90;;;;;;5052549;28;20218;-60
2023/09/12 10:38:03;;;;;;;9.70;8.90;;;34.10;98.60;;;;;;5052798;28;20290;-57
2023/09/12 10:40:31;;;;;;;8.50;7.90;;;34.20;94.70;;;;;;5042726;28;20252;-64
2023/09/12 10:43:00;;;;;;;8.23;7.57;;;33.90;95.80;;;;;;5041049;28;20259;-62
2023/09/12 10:45:29;;;;;;;9.23;7.70;;;33.70;98.40;;;;;;5052095;28;20226;-60
2023/09/12 10:47:57;;;;;;;10.07;8.13;;;32.80;97.20;;;;;;5052546;28;20609;-60
2023/09/12 10:50:24;;;;;;;13.25;8.55;;;32.60;99.40;;;;;;5052437;28;20680;-60
2023/09/12 10:52:52;;;;;;;9.73;8.73;;;32.30;99.90;;;;;;5053786;28;20305;-60
2023/09/12 10:55:19;;;;;;;8.75;8.05;;;32.10;99.90;;;;;;5047424;28;20719;-60
2023/09/12 10:58:02;;;;;;;9.80;8.88;;;31.90;99.90;;;;;;5039044;28;20343;-61
2023/09/12 11:00:32;;;;;;;8.82;8.23;;;31.80;98.50;;;;;;5052268;28;20293;-60
2023/09/12 11:03:21;;;;;;;10.02;9.20;;;31.80;99.90;;;;;;5051822;28;20673;-61
2023/09/12 11:05:53;;;;;;;10.40;9.25;;;31.40;99.90;;;;;;5046652;28;20221;-60
2023/09/12 11:08:20;;;;;;;12.07;11.27;;;31.00;99.90;;;;;;5052135;28;20296;-59
2023/09/12 11:11:20;;;;;;;16.67;15.23;;;31.10;99.90;;;;;;5042827;28;20214;-60
2023/09/12 11:13:47;;;;;;;12.27;11.30;;;30.70;99.90;;;;;;5042181;28;20833;-60
2023/09/12 11:16:17;;;;;;;12.07;11.07;;;30.50;99.90;;;;;;5050940;28;20638;-61
2023/09/12 11:19:19;;;;;;;14.85;13.50;;;30.50;99.90;;;;;;5057336;28;20209;-61
2023/09/12 11:21:49;;;;;;;15.80;14.50;;;29.90;99.90;;;;;;5046646;28;20745;-59
2023/09/12 11:24:20;;;;;;;13.75;12.40;;;29.90;99.90;;;;;;5042557;28;20496;-61
2023/09/12 11:26:58;;;;;;;12.38;11.48;;;30.00;99.90;;;;;;5034700;28;20284;-63
2023/09/12 11:29:29;;;;;;;15.15;13.55;;;30.10;99.90;;;;;;5044369;28;20300;-61
2023/09/12 11:32:00;;;;;;;13.88;12.60;;;30.10;99.90;;;;;;5055586;28;20262;-63
2023/09/12 11:34:28;;;;;;;11.40;10.70;;;29.90;99.90;;;;;;5055819;28;20201;-60
2023/09/12 11:37:00;;;;;;;13.15;12.10;;;30.00;99.90;;;;;;5071395;28;20220;-60
2023/09/12 11:39:30;;;;;;;12.30;11.40;;;29.90;99.90;;;;;;5048161;28;20202;-60
2023/09/12 11:41:58;;;;;;;12.32;11.43;;;29.90;99.90;;;;;;5059401;28;20198;-64
2023/09/12 11:44:26;;;;;;;10.43;9.70;;;29.90;99.90;;;;;;5071783;28;20225;-59
2023/09/12 11:46:54;;;;;;;12.75;11.85;;;29.80;99.90;;;;;;5071375;28;20290;-57
2023/09/12 11:49:22;;;;;;;12.15;11.00;;;29.80;99.90;;;;;;5061577;28;20206;-58
2023/09/12 11:51:52;;;;;;;11.95;10.93;;;29.90;99.90;;;;;;5061537;28;20202;-56
2023/09/12 11:54:26;;;;;;;11.55;10.50;;;29.70;99.90;;;;;;5061338;28;20197;-53
2023/09/12 11:56:56;;;;;;;11.65;10.77;;;29.70;99.90;;;;;;5070934;28;20228;-53
2023/09/12 11:59:24;;;;;;;11.38;10.57;;;29.60;99.90;;;;;;5061260;28;20208;-53
2023/09/12 12:01:51;;;;;;;10.35;9.55;;;29.60;99.90;;;;;;5066649;28;20204;-53
2023/09/12 12:04:22;;;;;;;10.50;9.70;;;29.60;99.90;;;;;;5052982;28;20717;-53
2023/09/12 12:06:52;;;;;;;11.30;10.38;;;29.80;99.90;;;;;;5035367;28;20334;-53
2023/09/12 12:09:22;;;;;;;11.95;11.15;;;29.70;99.90;;;;;;5044272;28;20209;-53
2023/09/12 12:11:49;;;;;;;11.88;10.98;;;29.90;99.90;;;;;;5050114;28;20194;-53
2023/09/12 12:14:20;;;;;;;11.88;11.07;;;29.70;99.90;;;;;;5048724;28;20212;-52
2023/09/12 12:16:47;;;;;;;11.77;10.90;;;29.40;99.90;;;;;;5048984;28;20762;-53
2023/09/12 12:19:15;;;;;;;9.80;8.95;;;29.40;99.90;;;;;;5047401;28;20632;-53
2023/09/12 12:21:43;;;;;;;10.50;9.52;;;29.30;99.90;;;;;;5049781;28;20275;-53
2023/09/12 12:24:13;;;;;;;11.25;10.13;;;29.30;99.90;;;;;;5041346;28;20245;-53
2023/09/12 12:26:42;;;;;;;11.43;10.65;;;29.50;99.90;;;;;;5036905;28;20218;-53
2023/09/12 12:29:10;;;;;;;11.60;10.77;;;29.50;99.90;;;;;;5048343;28;20584;-53
2023/09/12 12:31:38;;;;;;;12.05;10.98;;;29.40;99.90;;;;;;5050713;28;20285;-53
2023/09/12 12:34:06;;;;;;;11.90;10.93;;;29.20;99.90;;;;;;5050119;28;20194;-53
2023/09/12 12:36:34;;;;;;;10.52;9.73;;;29.00;99.90;;;;;;5043059;28;20272;-53